Friday, January 19, 2018, 1:53 AM GMT
Back to Local

CYHU, Saint Hubert Airport

Location: , , Canada Lat: 45.517
Local Time: 1:53 AM GMT ( 1:53 GMT) Lon: -73.417
Time Zone: GMT Elev: 88 ft

Show me the last for .
Show Decoded

2018-01-19 01:00 METAR CYHU 190100Z AUTO 25012KT 8SM OVC047 M04/M07 A2991 RMK SLP130 =
2018-01-19 00:00 METAR CYHU 190000Z AUTO 24012KT 9SM SCT018 OVC043 M04/M07 A2991 RMK SLP132 =
2018-01-18 23:50 METAR CYHU 182350Z AUTO 24010KT 9SM SCT018 OVC043 M04/M07 A2991 RMK SLP132 =
2018-01-18 23:16 METAR CYHU 182316Z AUTO 24011KT 9SM BKN018 OVC043 M04/M07 A2991 RMK SLP130 =
2018-01-18 23:00 METAR CYHU 182300Z AUTO 25011KT 9SM SCT018 OVC043 M04/M07 A2990 RMK SLP129 =
2018-01-18 22:00 METAR CYHU 182200Z AUTO 25012KT 9SM SCT018 OVC043 M04/M07 A2990 RMK SLP128 =
2018-01-18 21:31 METAR CYHU 182131Z AUTO 25016KT 9SM SCT018 OVC041 M04/M07 A2990 RMK SLP128 =
2018-01-18 21:00 METAR CYHU 182100Z AUTO 25015G21KT 9SM BKN018 OVC043 M04/M07 A2990 RMK SLP127 =
2018-01-18 20:53 METAR CYHU 182053Z AUTO 24015G21KT 9SM BKN018 OVC043 M04/M07 A2990 RMK SLP128 =
2018-01-18 20:00 METAR CYHU 182000Z AUTO 24016KT 8SM SCT017 OVC043 M04/M07 A2989 RMK SLP125 =
2018-01-18 19:00 METAR CYHU 181900Z AUTO 24014G20KT 9SM OVC055 M03/M07 A2989 RMK SLP126 =
2018-01-18 18:19 METAR CYHU 181819Z AUTO 24016KT 8SM SCT018 OVC055 M03/M07 A2989 RMK SLP126 =
2018-01-18 18:09 METAR CYHU 181809Z AUTO 24016KT 9SM -SN SCT018 OVC055 M03/M07 A2989 RMK SLP125 =
2018-01-18 18:00 METAR CYHU 181800Z AUTO 24017KT 9SM SCT018 OVC060 M03/M07 A2989 RMK SLP126 =
2018-01-18 17:56 METAR CYHU 181756Z AUTO 24017KT 9SM SCT018 OVC060 M03/M07 A2990 RMK SLP127 =
2018-01-18 17:51 METAR CYHU 181751Z AUTO 25014G21KT 9SM BKN018 OVC060 M03/M07 A2990 RMK SLP127 =
2018-01-18 17:45 METAR CYHU 181745Z AUTO 25016G21KT 8SM -SN BKN018 OVC060 M03/M07 A2990 RMK
                 SLP127 =
2018-01-18 17:41 METAR CYHU 181741Z AUTO 25014G19KT 8SM -SN SCT018 OVC060 M03/M07 A2990 RMK
                 SLP127 =
2018-01-18 17:33 METAR CYHU 181733Z AUTO 25015KT 8SM -SN BKN018 OVC060 M03/M07 A2990 RMK SLP127 =
2018-01-18 17:00 METAR CYHU 181700Z AUTO 25017KT 9SM BKN018 OVC065 M04/M07 A2991 RMK SLP130 =
2018-01-18 16:50 METAR CYHU 181650Z AUTO 24015G20KT 9SM BKN018 OVC065 M04/M07 A2991 RMK SLP132 =
2018-01-18 16:02 METAR CYHU 181602Z AUTO 25015KT 9SM FEW018 SCT049 OVC060 M04/M07 A2992 RMK
                 SLP136 =
2018-01-18 16:00 METAR CYHU 181600Z AUTO 25016KT 9SM -SN FEW018 SCT049 OVC060 M04/M07 A2993 RMK
                 SLP137 =
2018-01-18 15:11 METAR CYHU 181511Z AUTO 24013G21KT 8SM -SN OVC049 M04/M07 A2994 RMK SLP140 =
2018-01-18 15:09 METAR CYHU 181509Z AUTO 24014G21KT 8SM OVC049 M04/M07 A2993 RMK SLP139 =
2018-01-18 15:00 METAR CYHU 181500Z AUTO 24012G18KT 9SM -SN OVC049 M04/M08 A2993 RMK SLP139 =
2018-01-18 14:00 METAR CYHU 181400Z AUTO 25017KT 7SM -SN SCT040 OVC049 M05/M07 A2993 RMK SLP138 =
2018-01-18 13:00 METAR CYHU 181300Z AUTO 24014G19KT 6SM -SN OVC047 M05/M08 A2993 RMK SLP137 =
2018-01-18 12:00 METAR CYHU 181200Z AUTO 24014G20KT 9SM -SN FEW033 OVC045 M05/M08 A2993 RMK
                 SLP137 =
2018-01-18 11:00 METAR CYHU 181100Z AUTO 23012KT 9SM -SN OVC041 M05/M08 A2993 RMK SLP137 =
2018-01-18 10:00 METAR CYHU 181000Z AUTO 22010G15KT 9SM -SN FEW017 OVC037 M05/M08 A2994 RMK
                 SLP140 =
2018-01-18 09:41 METAR CYHU 180941Z AUTO 22012G17KT 9SM -SN OVC037 M05/M08 A2994 RMK SLP142 =
2018-01-18 09:33 METAR CYHU 180933Z AUTO 22012G18KT 9SM FEW018 OVC037 M05/M08 A2994 RMK SLP142 =
2018-01-18 09:00 METAR CYHU 180900Z AUTO 22014KT 9SM -SN SCT015 OVC037 M05/M08 A2995 RMK SLP145 =
2018-01-18 08:38 METAR CYHU 180838Z AUTO 22015KT 6SM -SN FEW017 OVC035 M05/M08 A2996 RMK SLP148 =
2018-01-18 08:00 METAR CYHU 180800Z AUTO 23012KT 4SM -SN SCT019 OVC033 M05/M08 A2998 RMK SLP154 =
2018-01-18 07:24 METAR CYHU 180724Z AUTO 24018KT 5SM -SN SCT021 SCT028 OVC035 M05/M08 A2998 RMK
                 SLP156 =
2018-01-18 07:07 METAR CYHU 180707Z AUTO 24015G24KT 9SM -SN BKN023 OVC033 M05/M09 A2999 RMK
                 SLP157 =
2018-01-18 07:00 METAR CYHU 180700Z AUTO 23018G24KT 9SM -SN SCT023 OVC032 M05/M09 A2999 RMK
                 SLP157 =
2018-01-18 06:13 METAR CYHU 180613Z AUTO 23016G28KT 9SM -SN OVC025 M05/M09 A2999 RMK SLP158 =
2018-01-18 06:06 METAR CYHU 180606Z AUTO 23022G28KT 9SM -SN OVC023 M05/M09 A2999 RMK SLP158 =
2018-01-18 06:00 METAR CYHU 180600Z AUTO 23012G21KT 9SM -SN OVC023 M05/M09 A2999 RMK SLP161 =
2018-01-18 05:28 METAR CYHU 180528Z AUTO 23017G23KT 9SM -SN OVC023 M05/M09 A3000 RMK SLP163 =
2018-01-18 05:00 METAR CYHU 180500Z AUTO 21010KT 9SM OVC021 M06/M09 A3001 RMK SLP167 =
2018-01-18 04:00 METAR CYHU 180400Z AUTO 21008KT 9SM OVC019 M06/M09 A3003 RMK SLP173 =
2018-01-18 03:14 METAR CYHU 180314Z AUTO 21012G18KT 9SM BKN023 BKN028 OVC140 M06/M10 A3004 RMK
                 SLP176 =
2018-01-18 03:00 METAR CYHU 180300Z AUTO 21013KT 9SM FEW026 OVC140 M06/M10 A3005 RMK SLP179 =
2018-01-18 02:00 METAR CYHU 180200Z AUTO 19008KT 9SM OVC150 M08/M11 A3007 RMK SLP188 =

Support USWX by starting your Amazon purchase here.